DLH024 EDDF-EDDH
Flight info
| Callsign | DLH024 |
|---|---|
| Flight time | 0h 42m |
| Altitude | 33000 |
| Route | MARUN3W MARUN Y150 TOLGI DCT SAS P605 NOLGO NOLGO6A |
| Aircraft | A320/M-SDE2E3FGIJ1LORWXY/HB1 |
Departure
| Time | 2026-05-05 12:45 |
|---|---|
| Airport | Frankfurt Main Airport (EDDF) |
Arrival
| Time | 2026-05-05 13:28 |
|---|---|
| Airport | Hamburg Helmut Schmidt Airport (EDDH) |
| Time | Latitude | Longitude | Altitude | Speed | Heading |
|---|---|---|---|---|---|
| 2026-05-05 12:15 | 50.04533 | 8.56587 | 362 ft | 0 kts | 115° |
| 2026-05-05 12:34 | 50.04535 | 8.56578 | 364 ft | 4 kts | 115° |
| 2026-05-05 12:34 | 50.04546 | 8.56540 | 362 ft | 4 kts | 115° |
| 2026-05-05 12:35 | 50.04559 | 8.56502 | 362 ft | 4 kts | 122° |
| 2026-05-05 12:35 | 50.04575 | 8.56471 | 364 ft | 4 kts | 153° |
| 2026-05-05 12:35 | 50.04588 | 8.56466 | 360 ft | 0 kts | 205° |
| 2026-05-05 12:35 | 50.04569 | 8.56453 | 361 ft | 4 kts | 204° |
| 2026-05-05 12:36 | 50.04547 | 8.56438 | 358 ft | 2 kts | 204° |
| 2026-05-05 12:36 | 50.04527 | 8.56415 | 362 ft | 4 kts | 225° |
| 2026-05-05 12:36 | 50.04516 | 8.56383 | 359 ft | 1 kts | 250° |
| 2026-05-05 12:36 | 50.04516 | 8.56382 | 359 ft | 0 kts | 250° |
| 2026-05-05 12:39 | 50.04513 | 8.56370 | 363 ft | 4 kts | 249° |
| 2026-05-05 12:40 | 50.04499 | 8.56312 | 359 ft | 6 kts | 249° |
| 2026-05-05 12:40 | 50.04484 | 8.56249 | 364 ft | 8 kts | 249° |
| 2026-05-05 12:40 | 50.04459 | 8.56143 | 357 ft | 12 kts | 249° |
| 2026-05-05 12:40 | 50.04444 | 8.56084 | 356 ft | 2 kts | 249° |
| 2026-05-05 12:41 | 50.04436 | 8.56055 | 360 ft | 7 kts | 240° |
| 2026-05-05 12:41 | 50.04387 | 8.56029 | 356 ft | 7 kts | 164° |
| 2026-05-05 12:41 | 50.04343 | 8.56055 | 358 ft | 7 kts | 160° |
| 2026-05-05 12:41 | 50.04302 | 8.56082 | 359 ft | 6 kts | 149° |
| 2026-05-05 12:42 | 50.04292 | 8.56150 | 355 ft | 7 kts | 84° |
| 2026-05-05 12:42 | 50.04274 | 8.56219 | 364 ft | 11 kts | 144° |
| 2026-05-05 12:42 | 50.04205 | 8.56260 | 356 ft | 8 kts | 160° |
| 2026-05-05 12:42 | 50.04180 | 8.56274 | 360 ft | 3 kts | 159° |
| 2026-05-05 12:43 | 50.04146 | 8.56311 | 358 ft | 10 kts | 121° |
| 2026-05-05 12:43 | 50.04160 | 8.56416 | 356 ft | 10 kts | 69° |
| 2026-05-05 12:43 | 50.04197 | 8.56572 | 355 ft | 17 kts | 69° |
| 2026-05-05 12:43 | 50.04222 | 8.56677 | 363 ft | 7 kts | 69° |
| 2026-05-05 12:44 | 50.04229 | 8.56744 | 360 ft | 9 kts | 103° |
| 2026-05-05 12:44 | 50.04173 | 8.56769 | 358 ft | 8 kts | 195° |
| 2026-05-05 12:44 | 50.04104 | 8.56731 | 357 ft | 12 kts | 200° |
| 2026-05-05 12:44 | 50.04032 | 8.56678 | 358 ft | 12 kts | 228° |
| 2026-05-05 12:45 | 50.03993 | 8.56518 | 358 ft | 29 kts | 250° |
| 2026-05-05 12:45 | 50.03828 | 8.55832 | 354 ft | 102 kts | 250° |
| 2026-05-05 12:45 | 50.03509 | 8.54499 | 355 ft | 158 kts | 249° |
| 2026-05-05 12:45 | 50.03121 | 8.52897 | 988 ft | 156 kts | 249° |
| 2026-05-05 12:46 | 50.02742 | 8.51312 | 1690 ft | 158 kts | 249° |
| 2026-05-05 12:46 | 50.02157 | 8.49748 | 2076 ft | 179 kts | 229° |
| 2026-05-05 12:46 | 50.01119 | 8.48489 | 2399 ft | 200 kts | 205° |
| 2026-05-05 12:46 | 49.99749 | 8.47924 | 2959 ft | 207 kts | 188° |
| 2026-05-05 12:47 | 49.98318 | 8.47611 | 3661 ft | 208 kts | 188° |
| 2026-05-05 12:47 | 49.96884 | 8.47293 | 4398 ft | 208 kts | 188° |
| 2026-05-05 12:47 | 49.95465 | 8.46816 | 5026 ft | 213 kts | 197° |
| 2026-05-05 12:47 | 49.93981 | 8.46130 | 5372 ft | 234 kts | 196° |
| 2026-05-05 12:48 | 49.92408 | 8.45271 | 6022 ft | 244 kts | 209° |
| 2026-05-05 12:48 | 49.91163 | 8.43472 | 6806 ft | 250 kts | 237° |
| 2026-05-05 12:48 | 49.90619 | 8.40899 | 7617 ft | 257 kts | 266° |
| 2026-05-05 12:48 | 49.90953 | 8.38166 | 8432 ft | 265 kts | 295° |
| 2026-05-05 12:49 | 49.92159 | 8.35999 | 9247 ft | 272 kts | 327° |
| 2026-05-05 12:49 | 49.93901 | 8.34723 | 9937 ft | 286 kts | 336° |
| 2026-05-05 12:49 | 49.95813 | 8.33492 | 10224 ft | 310 kts | 337° |
| 2026-05-05 12:49 | 49.97888 | 8.32171 | 10471 ft | 334 kts | 337° |
| 2026-05-05 12:50 | 50.00100 | 8.30746 | 10786 ft | 353 kts | 337° |
| 2026-05-05 12:50 | 50.02469 | 8.29630 | 11425 ft | 361 kts | 352° |
| 2026-05-05 12:50 | 50.04985 | 8.29747 | 12149 ft | 366 kts | 12° |
| 2026-05-05 12:50 | 50.07351 | 8.31202 | 12866 ft | 369 kts | 30° |
| 2026-05-05 12:51 | 50.09582 | 8.33220 | 13608 ft | 372 kts | 31° |
| 2026-05-05 12:51 | 50.11825 | 8.35275 | 14242 ft | 376 kts | 31° |
| 2026-05-05 12:51 | 50.14093 | 8.37361 | 14853 ft | 381 kts | 31° |
| 2026-05-05 12:51 | 50.16358 | 8.39446 | 15452 ft | 385 kts | 31° |
| 2026-05-05 12:52 | 50.18683 | 8.41590 | 16074 ft | 390 kts | 31° |
| 2026-05-05 12:52 | 50.21031 | 8.43747 | 16656 ft | 395 kts | 31° |
| 2026-05-05 12:52 | 50.23416 | 8.45931 | 17238 ft | 399 kts | 31° |
| 2026-05-05 12:52 | 50.25826 | 8.48137 | 17813 ft | 404 kts | 31° |
| 2026-05-05 12:53 | 50.28267 | 8.50371 | 18365 ft | 408 kts | 31° |
| 2026-05-05 12:53 | 50.30725 | 8.52628 | 18890 ft | 412 kts | 31° |
| 2026-05-05 12:53 | 50.33211 | 8.54912 | 19438 ft | 415 kts | 31° |
| 2026-05-05 12:53 | 50.35708 | 8.57211 | 20039 ft | 418 kts | 31° |
| 2026-05-05 12:54 | 50.40749 | 8.61880 | 21147 ft | 424 kts | 31° |
| 2026-05-05 12:54 | 50.43293 | 8.64240 | 21679 ft | 427 kts | 31° |
| 2026-05-05 12:54 | 50.45858 | 8.66620 | 22179 ft | 430 kts | 31° |
| 2026-05-05 12:55 | 50.48441 | 8.69016 | 22680 ft | 433 kts | 31° |
| 2026-05-05 12:55 | 50.51040 | 8.71431 | 23164 ft | 436 kts | 31° |
| 2026-05-05 12:55 | 50.53658 | 8.73864 | 23603 ft | 439 kts | 31° |
| 2026-05-05 12:55 | 50.56298 | 8.76318 | 23962 ft | 442 kts | 31° |
| 2026-05-05 12:56 | 50.58954 | 8.78790 | 24303 ft | 446 kts | 31° |
| 2026-05-05 12:56 | 50.61635 | 8.81292 | 24657 ft | 449 kts | 31° |
| 2026-05-05 12:56 | 50.64327 | 8.83811 | 25002 ft | 452 kts | 31° |
| 2026-05-05 12:56 | 50.67040 | 8.86357 | 25349 ft | 455 kts | 31° |
| 2026-05-05 12:57 | 50.69769 | 8.88923 | 25689 ft | 458 kts | 31° |
| 2026-05-05 12:57 | 50.72513 | 8.91502 | 26027 ft | 461 kts | 31° |
| 2026-05-05 12:57 | 50.75276 | 8.94103 | 26367 ft | 464 kts | 31° |
| 2026-05-05 12:57 | 50.78018 | 8.96685 | 26683 ft | 467 kts | 31° |
| 2026-05-05 12:58 | 50.80820 | 8.99325 | 26997 ft | 469 kts | 31° |
| 2026-05-05 12:58 | 50.83629 | 9.01978 | 27308 ft | 472 kts | 31° |
| 2026-05-05 12:58 | 50.86459 | 9.04657 | 27617 ft | 475 kts | 31° |
| 2026-05-05 12:58 | 50.89301 | 9.07348 | 27915 ft | 478 kts | 31° |
| 2026-05-05 12:59 | 50.92162 | 9.10057 | 28212 ft | 480 kts | 31° |
| 2026-05-05 12:59 | 50.95034 | 9.12782 | 28496 ft | 483 kts | 31° |
| 2026-05-05 12:59 | 50.97924 | 9.15528 | 28772 ft | 485 kts | 30° |
| 2026-05-05 13:00 | 51.04122 | 9.19699 | 29317 ft | 487 kts | 17° |
| 2026-05-05 13:00 | 51.07342 | 9.21396 | 29565 ft | 489 kts | 17° |
| 2026-05-05 13:01 | 51.17078 | 9.26493 | 30337 ft | 491 kts | 16° |
| 2026-05-05 13:01 | 51.20329 | 9.28198 | 30599 ft | 491 kts | 16° |
| 2026-05-05 13:01 | 51.23569 | 9.29905 | 30915 ft | 490 kts | 16° |
| 2026-05-05 13:01 | 51.26805 | 9.31618 | 31218 ft | 490 kts | 16° |
| 2026-05-05 13:02 | 51.30037 | 9.33335 | 31491 ft | 490 kts | 16° |
| 2026-05-05 13:02 | 51.33271 | 9.35054 | 31786 ft | 490 kts | 16° |
| 2026-05-05 13:02 | 51.36504 | 9.36773 | 32040 ft | 490 kts | 16° |
| 2026-05-05 13:02 | 51.39739 | 9.38492 | 32321 ft | 490 kts | 15° |
| 2026-05-05 13:03 | 51.42975 | 9.40208 | 32593 ft | 490 kts | 15° |
| 2026-05-05 13:03 | 51.46214 | 9.41926 | 32822 ft | 490 kts | 15° |
| 2026-05-05 13:03 | 51.52659 | 9.45386 | 32863 ft | 487 kts | 15° |
| 2026-05-05 13:04 | 51.59089 | 9.48853 | 32863 ft | 487 kts | 15° |
| 2026-05-05 13:04 | 51.65515 | 9.52297 | 32864 ft | 487 kts | 15° |
| 2026-05-05 13:05 | 51.71925 | 9.55747 | 32867 ft | 486 kts | 15° |
| 2026-05-05 13:05 | 51.78336 | 9.59223 | 32867 ft | 486 kts | 15° |
| 2026-05-05 13:06 | 51.84707 | 9.62691 | 32875 ft | 486 kts | 15° |
| 2026-05-05 13:06 | 51.90072 | 9.65621 | 32898 ft | 485 kts | 15° |
| 2026-05-05 13:07 | 51.96467 | 9.69118 | 32898 ft | 485 kts | 15° |
| 2026-05-05 13:07 | 52.02887 | 9.72014 | 32901 ft | 479 kts | 6° |
| 2026-05-05 13:08 | 52.09444 | 9.73966 | 32903 ft | 479 kts | 6° |
| 2026-05-05 13:08 | 52.16000 | 9.75919 | 32919 ft | 478 kts | 6° |
| 2026-05-05 13:09 | 52.19269 | 9.76894 | 32661 ft | 476 kts | 6° |
| 2026-05-05 13:09 | 52.22511 | 9.77861 | 32399 ft | 475 kts | 6° |
| 2026-05-05 13:09 | 52.25769 | 9.78837 | 32029 ft | 474 kts | 6° |
| 2026-05-05 13:09 | 52.29011 | 9.79813 | 31420 ft | 475 kts | 6° |
| 2026-05-05 13:10 | 52.32264 | 9.80790 | 30916 ft | 477 kts | 7° |
| 2026-05-05 13:10 | 52.35539 | 9.81773 | 30419 ft | 478 kts | 7° |
| 2026-05-05 13:10 | 52.38815 | 9.82756 | 29943 ft | 478 kts | 6° |
| 2026-05-05 13:10 | 52.42063 | 9.83732 | 29374 ft | 470 kts | 7° |
| 2026-05-05 13:11 | 52.45252 | 9.84698 | 28813 ft | 463 kts | 7° |
| 2026-05-05 13:11 | 52.48403 | 9.85655 | 28267 ft | 461 kts | 7° |
| 2026-05-05 13:11 | 52.51575 | 9.86617 | 27724 ft | 465 kts | 7° |
| 2026-05-05 13:11 | 52.54753 | 9.87579 | 27195 ft | 463 kts | 7° |
| 2026-05-05 13:12 | 52.57913 | 9.88537 | 26677 ft | 459 kts | 7° |
| 2026-05-05 13:12 | 52.61040 | 9.89489 | 26182 ft | 455 kts | 7° |
| 2026-05-05 13:12 | 52.64140 | 9.90435 | 25680 ft | 450 kts | 7° |
| 2026-05-05 13:12 | 52.67208 | 9.91370 | 25186 ft | 446 kts | 7° |
| 2026-05-05 13:13 | 52.70207 | 9.92285 | 24710 ft | 442 kts | 7° |
| 2026-05-05 13:13 | 52.73232 | 9.92917 | 24223 ft | 433 kts | 356° |
| 2026-05-05 13:13 | 52.76173 | 9.92386 | 23763 ft | 421 kts | 345° |
| 2026-05-05 13:13 | 52.79061 | 9.91458 | 23254 ft | 414 kts | 345° |
| 2026-05-05 13:14 | 52.81869 | 9.90544 | 22128 ft | 411 kts | 345° |
| 2026-05-05 13:14 | 52.84696 | 9.89611 | 20561 ft | 418 kts | 345° |
| 2026-05-05 13:14 | 52.87544 | 9.88664 | 19369 ft | 414 kts | 346° |
| 2026-05-05 13:14 | 52.90349 | 9.87736 | 18310 ft | 408 kts | 346° |
| 2026-05-05 13:15 | 52.93081 | 9.86835 | 17196 ft | 402 kts | 346° |
| 2026-05-05 13:15 | 52.95785 | 9.85950 | 16482 ft | 388 kts | 346° |
| 2026-05-05 13:15 | 52.98394 | 9.85099 | 15847 ft | 376 kts | 347° |
| 2026-05-05 13:15 | 53.00945 | 9.84258 | 15234 ft | 371 kts | 347° |
| 2026-05-05 13:16 | 53.03468 | 9.83422 | 14865 ft | 369 kts | 347° |
| 2026-05-05 13:16 | 53.05971 | 9.82589 | 14371 ft | 366 kts | 347° |
| 2026-05-05 13:16 | 53.08440 | 9.81762 | 13775 ft | 355 kts | 347° |
| 2026-05-05 13:16 | 53.10823 | 9.80960 | 13118 ft | 344 kts | 347° |
| 2026-05-05 13:17 | 53.13135 | 9.80184 | 12463 ft | 334 kts | 347° |
| 2026-05-05 13:17 | 53.15387 | 9.79435 | 11824 ft | 326 kts | 347° |
| 2026-05-05 13:17 | 53.17576 | 9.78709 | 11310 ft | 315 kts | 347° |
| 2026-05-05 13:17 | 53.19692 | 9.78005 | 10803 ft | 306 kts | 346° |
| 2026-05-05 13:18 | 53.21748 | 9.77318 | 10325 ft | 298 kts | 346° |
| 2026-05-05 13:18 | 53.23764 | 9.76642 | 9782 ft | 293 kts | 346° |
| 2026-05-05 13:18 | 53.25752 | 9.75973 | 9199 ft | 290 kts | 346° |
| 2026-05-05 13:18 | 53.27721 | 9.75311 | 8623 ft | 287 kts | 346° |
| 2026-05-05 13:19 | 53.29563 | 9.74194 | 8061 ft | 278 kts | 328° |
| 2026-05-05 13:19 | 53.31178 | 9.72537 | 7637 ft | 266 kts | 324° |
| 2026-05-05 13:19 | 53.32700 | 9.70888 | 7272 ft | 255 kts | 325° |
| 2026-05-05 13:19 | 53.34147 | 9.69284 | 6934 ft | 245 kts | 324° |
| 2026-05-05 13:20 | 53.35552 | 9.67730 | 6571 ft | 240 kts | 325° |
| 2026-05-05 13:20 | 53.36930 | 9.66168 | 6190 ft | 238 kts | 324° |
| 2026-05-05 13:20 | 53.38291 | 9.64618 | 5749 ft | 236 kts | 324° |
| 2026-05-05 13:20 | 53.39639 | 9.63066 | 5327 ft | 235 kts | 324° |
| 2026-05-05 13:21 | 53.40984 | 9.61509 | 4889 ft | 234 kts | 324° |
| 2026-05-05 13:21 | 53.42429 | 9.60349 | 4440 ft | 230 kts | 351° |
| 2026-05-05 13:21 | 53.43955 | 9.60805 | 4106 ft | 228 kts | 33° |
| 2026-05-05 13:21 | 53.45082 | 9.62680 | 4000 ft | 231 kts | 50° |
| 2026-05-05 13:22 | 53.46094 | 9.64764 | 4001 ft | 231 kts | 50° |
| 2026-05-05 13:22 | 53.47103 | 9.66808 | 3999 ft | 222 kts | 49° |
| 2026-05-05 13:22 | 53.48063 | 9.68728 | 3999 ft | 207 kts | 49° |
| 2026-05-05 13:22 | 53.48951 | 9.70503 | 4025 ft | 190 kts | 49° |
| 2026-05-05 13:23 | 53.49769 | 9.72136 | 3827 ft | 182 kts | 49° |
| 2026-05-05 13:23 | 53.50584 | 9.73768 | 3590 ft | 178 kts | 49° |
| 2026-05-05 13:23 | 53.51371 | 9.75344 | 3357 ft | 175 kts | 49° |
| 2026-05-05 13:23 | 53.52149 | 9.76901 | 3129 ft | 174 kts | 49° |
| 2026-05-05 13:24 | 53.52921 | 9.78450 | 2899 ft | 171 kts | 50° |
| 2026-05-05 13:24 | 53.53667 | 9.79945 | 2663 ft | 167 kts | 50° |
| 2026-05-05 13:24 | 53.54413 | 9.81443 | 2441 ft | 166 kts | 50° |
| 2026-05-05 13:24 | 53.55155 | 9.82933 | 2213 ft | 166 kts | 50° |
| 2026-05-05 13:25 | 53.55884 | 9.84399 | 1978 ft | 161 kts | 51° |
| 2026-05-05 13:25 | 53.56577 | 9.85792 | 1777 ft | 150 kts | 50° |
| 2026-05-05 13:25 | 53.57210 | 9.87061 | 1649 ft | 136 kts | 50° |
| 2026-05-05 13:25 | 53.57801 | 9.88252 | 1454 ft | 131 kts | 50° |
| 2026-05-05 13:26 | 53.58379 | 9.89425 | 1237 ft | 128 kts | 51° |
| 2026-05-05 13:26 | 53.58954 | 9.90592 | 1025 ft | 131 kts | 49° |
| 2026-05-05 13:26 | 53.59541 | 9.91779 | 827 ft | 131 kts | 49° |
| 2026-05-05 13:26 | 53.60123 | 9.92957 | 632 ft | 132 kts | 51° |
| 2026-05-05 13:27 | 53.60702 | 9.94120 | 469 ft | 129 kts | 51° |
| 2026-05-05 13:27 | 53.61280 | 9.95289 | 317 ft | 130 kts | 51° |
| 2026-05-05 13:27 | 53.61859 | 9.96456 | 131 ft | 129 kts | 50° |
| 2026-05-05 13:27 | 53.62413 | 9.97565 | 48 ft | 112 kts | 50° |
| 2026-05-05 13:28 | 53.62801 | 9.98347 | 50 ft | 62 kts | 50° |
| 2026-05-05 13:28 | 53.63028 | 9.98804 | 49 ft | 47 kts | 50° |
| 2026-05-05 13:28 | 53.63225 | 9.99202 | 52 ft | 42 kts | 50° |
| 2026-05-05 13:28 | 53.63407 | 9.99570 | 50 ft | 40 kts | 50° |
| 2026-05-05 13:29 | 53.63541 | 9.99841 | 51 ft | 24 kts | 50° |
| 2026-05-05 13:29 | 53.63568 | 9.99986 | 49 ft | 14 kts | 124° |
| 2026-05-05 13:29 | 53.63516 | 10.00062 | 50 ft | 6 kts | 140° |
| 2026-05-05 13:29 | 53.63507 | 10.00075 | 50 ft | 0 kts | 140° |
| 2026-05-05 13:30 | 53.63489 | 10.00099 | 51 ft | 10 kts | 140° |
| 2026-05-05 13:30 | 53.63419 | 10.00156 | 49 ft | 11 kts | 174° |
| 2026-05-05 13:30 | 53.63345 | 10.00165 | 51 ft | 10 kts | 176° |
| 2026-05-05 13:31 | 53.63279 | 10.00173 | 51 ft | 8 kts | 176° |
| 2026-05-05 13:31 | 53.63240 | 10.00203 | 51 ft | 5 kts | 107° |
| 2026-05-05 13:31 | 53.63243 | 10.00256 | 51 ft | 4 kts | 85° |
| 2026-05-05 13:31 | 53.63244 | 10.00324 | 51 ft | 3 kts | 87° |
| 2026-05-05 13:32 | 53.63246 | 10.00347 | 51 ft | 0 kts | 82° |
| 2026-05-05 13:32 | 53.63246 | 10.00354 | 51 ft | 0 kts | 84° |